createdAt,value
2016-07-12T00:00:39.622Z,87.73
2016-07-12T00:01:39.704Z,87.19
2016-07-12T00:02:39.735Z,87.25
2016-07-12T00:03:39.594Z,87.44
2016-07-12T00:04:39.659Z,87.54
2016-07-12T00:05:39.592Z,88.11
2016-07-12T00:06:39.617Z,87.92
2016-07-12T00:07:39.879Z,87.82
2016-07-12T00:08:39.781Z,88.02
2016-07-12T00:09:39.662Z,88.21
2016-07-12T00:10:39.612Z,87.82
2016-07-12T00:11:39.621Z,87.92
2016-07-12T00:12:39.792Z,87.92
2016-07-12T00:13:39.618Z,88.21
2016-07-12T00:14:39.602Z,88.69
2016-07-12T00:15:39.618Z,88.59
2016-07-12T00:16:39.612Z,89.36
2016-07-12T00:17:39.626Z,89.46
2016-07-12T00:18:39.736Z,89.61
2016-07-12T00:19:39.618Z,89.26
2016-07-12T00:20:39.710Z,88.69
2016-07-12T00:21:39.812Z,88.4
2016-07-12T00:22:39.596Z,88.88
2016-07-12T00:23:39.731Z,88.4
2016-07-12T00:24:39.640Z,89.26
2016-07-12T00:25:39.768Z,89.17
2016-07-12T00:26:39.650Z,89.36
2016-07-12T00:27:39.703Z,88.49
2016-07-12T00:28:39.606Z,89.17
2016-07-12T00:29:39.674Z,89.46
2016-07-12T00:30:39.676Z,89.55
2016-07-12T00:42:57.294Z,90.42
2016-07-12T00:43:57.262Z,90.18
2016-07-12T00:44:57.284Z,89.99
2016-07-12T00:45:57.272Z,90.08
2016-07-12T00:46:57.322Z,90.66
2016-07-12T00:47:57.257Z,90.85
2016-07-12T00:48:57.347Z,90.18
2016-07-12T00:49:57.286Z,89.79
2016-07-12T00:50:57.343Z,90.85
2016-07-12T00:51:57.285Z,90.85
2016-07-12T00:52:57.476Z,90.75
2016-07-12T00:53:57.267Z,91.14
2016-07-12T00:54:57.244Z,91.14
2016-07-12T00:55:57.269Z,91.24
2016-07-12T00:56:57.254Z,91.42
2016-07-12T00:57:57.282Z,91.24
2016-07-12T00:58:57.303Z,91.62
2016-07-12T00:59:57.298Z,91.77
2016-07-12T01:00:57.269Z,91.96
2016-07-12T01:01:57.278Z,91.62
2016-07-12T01:02:57.739Z,91.48
2016-07-12T01:03:57.503Z,92
2016-07-12T01:04:57.322Z,92.15
2016-07-12T01:05:57.280Z,92.1
2016-07-12T01:06:57.448Z,92.19
2016-07-12T01:07:57.253Z,91.96
2016-07-12T01:08:57.378Z,91.96
2016-07-12T01:09:57.489Z,91.33
2016-07-12T01:10:57.480Z,91.62
2016-07-12T01:11:57.382Z,91.62
2016-07-12T01:12:58.322Z,91.14
2016-07-12T01:13:57.282Z,91.28
2016-07-12T01:14:57.390Z,91.52
2016-07-12T01:15:57.329Z,90.95
2016-07-12T01:16:57.284Z,90.85
2016-07-12T01:17:57.954Z,91.05
2016-07-12T01:18:57.471Z,90.85
2016-07-12T01:19:57.734Z,90.71
2016-07-12T01:20:57.295Z,90.56
2016-07-12T01:21:57.418Z,90.47
2016-07-12T01:22:57.304Z,90.28
2016-07-12T01:23:57.341Z,89.79
2016-07-12T01:24:57.283Z,89.89
2016-07-12T01:26:07.804Z,89.89
2016-07-12T01:26:57.283Z,89.99
2016-07-12T01:27:57.488Z,90.04
2016-07-12T01:28:57.545Z,90.28
2016-07-12T01:29:57.399Z,89.99
2016-07-12T01:30:59.526Z,89.94
2016-07-12T01:31:57.426Z,89.61
2016-07-12T01:32:57.401Z,89.22
2016-07-12T01:33:57.465Z,89.75
2016-07-12T01:34:57.334Z,89.22
2016-07-12T01:35:57.520Z,89.12
2016-07-12T01:36:57.375Z,89.41
2016-07-12T01:37:57.409Z,89.03
2016-07-12T01:38:57.293Z,88.93
2016-07-12T01:39:57.390Z,89.03
2016-07-12T01:40:57.273Z,88.45
2016-07-12T01:41:57.349Z,89.12
2016-07-12T01:42:57.272Z,88.74
2016-07-12T01:43:57.293Z,88.35
2016-07-12T01:44:57.305Z,89.03
2016-07-12T01:45:57.406Z,89.51
2016-07-12T01:46:57.316Z,89.27
2016-07-12T01:47:57.294Z,89.27
2016-07-12T01:48:57.299Z,89.65
2016-07-12T01:49:57.358Z,89.47
2016-07-12T01:50:57.381Z,89.32
2016-07-12T01:51:57.325Z,89.79
2016-07-12T01:52:57.592Z,89.47
2016-07-12T01:53:57.299Z,89.79
2016-07-12T01:54:57.405Z,89.7
2016-07-12T01:55:57.384Z,89.89
2016-07-12T01:56:57.321Z,89.75
2016-07-12T01:57:57.323Z,90.14
2016-07-12T01:58:57.306Z,89.75
2016-07-12T01:59:57.309Z,90.14
2016-07-12T02:00:57.483Z,89.85
2016-07-12T02:01:57.311Z,89.99
2016-07-12T02:02:57.455Z,89.56
2016-07-12T02:03:57.351Z,89.75
2016-07-12T02:04:57.298Z,89.79
2016-07-12T02:05:57.311Z,89.94
2016-07-12T02:06:57.349Z,89.75
2016-07-12T02:07:57.322Z,89.75
2016-07-12T02:08:57.305Z,89.65
2016-07-12T02:09:57.384Z,89.85
2016-07-12T02:10:58.730Z,89.75
2016-07-12T02:11:57.315Z,89.85
2016-07-12T02:12:57.332Z,89.94
2016-07-12T02:13:57.312Z,89.79
2016-07-12T02:14:57.439Z,89.27
2016-07-12T02:15:57.321Z,89.61
2016-07-12T02:16:57.326Z,89.85
2016-07-12T02:17:57.317Z,89.75
2016-07-12T02:18:57.530Z,89.94
2016-07-12T02:19:57.322Z,89.75
2016-07-12T02:20:57.386Z,89.85
2016-07-12T02:21:57.560Z,89.75
2016-07-12T02:22:57.316Z,90.42
2016-07-12T02:23:57.333Z,90.14
2016-07-12T02:24:57.342Z,90.14
2016-07-12T02:25:57.332Z,90.23
2016-07-12T02:26:57.405Z,90.14
2016-07-12T02:27:57.399Z,90.81
2016-07-12T02:29:08.543Z,90.71
2016-07-12T02:29:57.334Z,90.42
2016-07-12T02:30:57.347Z,91
2016-07-12T02:31:57.323Z,91.53
2016-07-12T02:32:57.325Z,91.43
2016-07-12T02:33:57.328Z,91.38
2016-07-12T02:34:57.346Z,92.01
2016-07-12T02:35:57.415Z,91.43
2016-07-12T02:36:57.319Z,91.72
2016-07-12T02:37:57.519Z,92.15
2016-07-12T02:38:57.383Z,92.15
2016-07-12T02:39:57.291Z,92.05
2016-07-12T02:40:57.476Z,91.63
2016-07-12T02:41:57.315Z,92.05
2016-07-12T02:42:57.357Z,92.1
2016-07-12T02:43:57.331Z,91.91
2016-07-12T02:44:57.340Z,92.05
2016-07-12T02:45:57.303Z,91.77
2016-07-12T02:46:57.332Z,91.86
2016-07-12T02:47:57.326Z,91.91
2016-07-12T02:48:57.316Z,91.91
2016-07-12T02:49:57.369Z,91.63
2016-07-12T02:50:57.475Z,92.49
2016-07-12T02:51:57.325Z,92.58
2016-07-12T02:52:57.334Z,92.49
2016-07-12T02:53:57.305Z,91.91
2016-07-12T02:54:57.348Z,92.58
2016-07-12T02:55:57.324Z,92.49
2016-07-12T02:56:57.329Z,92.49
2016-07-12T02:57:57.351Z,92.39
2016-07-12T02:58:57.360Z,92.39
2016-07-12T02:59:57.347Z,92.39
2016-07-12T03:00:57.364Z,92.58
2016-07-12T03:01:57.341Z,92.39
2016-07-12T03:02:57.349Z,92.68
2016-07-12T03:03:57.416Z,92.39
2016-07-12T03:04:57.340Z,92.39
2016-07-12T03:05:57.960Z,92.87
2016-07-12T03:06:57.326Z,92.77
2016-07-12T03:07:57.352Z,92.77
2016-07-12T03:08:57.315Z,92.77
2016-07-12T03:09:57.380Z,92.68
2016-07-12T03:10:57.333Z,92.01
2016-07-12T03:11:57.341Z,92.39
2016-07-12T03:12:57.330Z,92.3
2016-07-12T03:13:57.657Z,92.68
2016-07-12T03:14:57.312Z,91.72
2016-07-12T03:15:57.357Z,92.05
2016-07-12T03:16:57.324Z,91.63
2016-07-12T03:17:57.369Z,92.1
2016-07-12T03:18:57.337Z,92.1
2016-07-12T03:19:57.455Z,91.96
2016-07-12T03:20:57.344Z,92.1
2016-07-12T03:21:57.616Z,91.67
2016-07-12T03:22:57.354Z,92.01
2016-07-12T03:23:57.379Z,91.96
2016-07-12T03:24:57.333Z,91.96
2016-07-12T03:25:57.352Z,92.05
2016-07-12T03:26:57.391Z,91.96
2016-07-12T03:27:57.344Z,92.49
2016-07-12T03:28:57.358Z,92.49
2016-07-12T03:29:57.348Z,92.77
2016-07-12T03:30:57.996Z,92.1
2016-07-12T03:31:57.372Z,92.49
2016-07-12T03:32:57.393Z,92.39
2016-07-12T03:33:57.321Z,92.49
2016-07-12T03:34:57.345Z,92.1
2016-07-12T03:35:57.418Z,92.49
2016-07-12T03:36:57.379Z,92.39
2016-07-12T03:37:57.338Z,92.77
2016-07-12T03:38:57.409Z,92.2
2016-07-12T03:39:57.400Z,92.01
2016-07-12T03:40:57.331Z,92.87
2016-07-12T03:41:57.379Z,92.15
2016-07-12T03:42:57.348Z,92.87
2016-07-12T03:43:57.562Z,92.39
2016-07-12T03:44:57.365Z,91.82
2016-07-12T03:45:57.350Z,92.72
2016-07-12T03:46:57.461Z,92.01
2016-07-12T03:47:57.404Z,92.58
2016-07-12T03:48:57.349Z,92.39
2016-07-12T03:49:57.357Z,92.01
2016-07-12T03:50:57.391Z,92.91
2016-07-12T03:51:57.342Z,92.49
2016-07-12T03:52:57.363Z,92.34
2016-07-12T03:53:57.318Z,92.24
2016-07-12T03:54:57.365Z,92.2
2016-07-12T03:55:57.356Z,92.2
2016-07-12T03:56:57.384Z,92.54
2016-07-12T03:57:57.512Z,92.39
2016-07-12T03:58:57.409Z,92.91
2016-07-12T03:59:57.333Z,92.49
2016-07-12T04:00:57.364Z,92.82
2016-07-12T04:01:57.353Z,92.34
2016-07-12T04:02:57.362Z,92.63
2016-07-12T04:03:57.370Z,92.63
2016-07-12T04:04:57.386Z,92.77
2016-07-12T04:05:57.385Z,92.24
2016-07-12T04:06:57.355Z,92.05
2016-07-12T04:07:57.407Z,91.96
2016-07-12T04:08:57.404Z,92.24
2016-07-12T04:09:57.481Z,92.05
2016-07-12T04:10:57.407Z,91.96
2016-07-12T04:11:57.358Z,91.86
2016-07-12T04:12:57.356Z,91.96
2016-07-12T04:13:57.362Z,91.86
2016-07-12T04:14:57.382Z,91.86
2016-07-12T04:15:57.375Z,92.05
2016-07-12T04:16:57.417Z,92.15
2016-07-12T04:17:57.383Z,91.77
2016-07-12T04:18:57.374Z,92.24
2016-07-12T04:19:57.382Z,91.38
2016-07-12T04:20:57.358Z,91.28
2016-07-12T04:21:57.388Z,91.38
2016-07-12T04:22:57.358Z,91.19
2016-07-12T04:23:57.354Z,91.62
2016-07-12T04:24:57.357Z,91.57
2016-07-12T04:25:57.378Z,91.96
2016-07-12T04:26:57.366Z,91.86
2016-07-12T04:27:57.364Z,91.57
2016-07-12T04:28:57.399Z,91.28
2016-07-12T04:29:57.355Z,91.38
2016-07-12T04:30:57.387Z,91.05
2016-07-12T04:31:57.520Z,90.56
2016-07-12T04:32:57.381Z,90.75
2016-07-12T04:33:57.394Z,90.08
2016-07-12T04:34:57.407Z,89.89
2016-07-12T04:35:57.393Z,89.41
2016-07-12T04:36:57.400Z,88.11
2016-07-12T04:37:57.362Z,85.85
2016-07-12T04:38:57.367Z,84.74
2016-07-12T04:39:57.447Z,84.11
2016-07-12T04:40:57.380Z,83.87
2016-07-12T04:41:57.431Z,83.59
2016-07-12T04:42:57.365Z,82.48
2016-07-12T04:43:57.385Z,83.06
2016-07-12T04:44:57.397Z,82.76
2016-07-12T04:45:57.384Z,83.44
2016-07-12T04:58:14.303Z,84.26
2016-07-12T04:59:15.048Z,83.15
2016-07-12T05:00:14.335Z,82.67
2016-07-12T05:01:15.076Z,80.69
2016-07-12T05:02:14.304Z,78.23
2016-07-12T05:03:14.334Z,77.59
2016-07-12T05:04:14.824Z,77.92
2016-07-12T05:05:14.314Z,78.46
2016-07-12T05:06:14.336Z,79.28
2016-07-12T05:07:14.330Z,78.52
2016-07-12T05:08:14.662Z,78.46
2016-07-12T05:09:14.303Z,77.15
2016-07-12T05:10:14.366Z,77.06
2016-07-12T05:11:14.336Z,78.17
2016-07-12T05:12:14.327Z,78.36
2016-07-12T05:13:14.329Z,78.08
2016-07-12T05:14:14.624Z,78.75
2016-07-12T05:15:14.335Z,78.65
2016-07-12T05:16:14.323Z,79.03
2016-07-12T05:17:15.175Z,79.61
2016-07-12T05:18:14.367Z,80.44
2016-07-12T05:19:14.324Z,81.6
2016-07-12T05:20:14.347Z,81.17
2016-07-12T05:21:14.308Z,82.04
2016-07-12T05:22:14.408Z,82.42
2016-07-12T05:23:14.318Z,83.44
2016-07-12T05:24:14.334Z,84.59
2016-07-12T05:25:14.335Z,85.32
2016-07-12T05:26:14.367Z,86.09
2016-07-12T05:27:14.325Z,85.89
2016-07-12T05:28:14.357Z,86.76
2016-07-12T05:29:14.312Z,86.52
2016-07-12T05:30:14.374Z,86.72
2016-07-12T05:31:14.367Z,86.66
2016-07-12T05:32:14.456Z,86.24
2016-07-12T05:33:14.393Z,84.64
2016-07-12T05:34:14.387Z,82.48
2016-07-12T05:35:14.341Z,80.4
2016-07-12T05:36:14.358Z,77.88
2016-07-12T05:37:14.421Z,76.48
2016-07-12T05:38:14.401Z,73.82
2016-07-12T05:39:14.330Z,71.86
2016-07-12T05:40:17.090Z,71.12
2016-07-12T05:41:14.451Z,71.19
2016-07-12T05:42:14.313Z,69.81
2016-07-12T05:43:14.331Z,69.9
2016-07-12T05:44:14.386Z,68.49
2016-07-12T05:45:14.338Z,67.52
2016-07-12T05:46:14.460Z,67.75
2016-07-12T05:47:14.450Z,68.62
2016-07-12T05:48:14.315Z,68.88
2016-07-12T05:49:14.386Z,67.59
2016-07-12T05:50:14.349Z,67.94
2016-07-12T05:51:14.366Z,68.04
2016-07-12T05:52:14.360Z,68.2
2016-07-12T05:53:14.353Z,68.4
2016-07-12T05:54:14.334Z,67.62
2016-07-12T05:55:14.334Z,70.23
2016-07-12T05:56:14.334Z,70.74
2016-07-12T05:57:14.325Z,71.8
2016-07-12T05:58:14.587Z,73.75
2016-07-12T05:59:14.419Z,73.37
2016-07-12T06:00:15.468Z,73.75
2016-07-12T06:01:14.354Z,72.99
2016-07-12T06:02:14.407Z,72.89
2016-07-12T06:03:14.357Z,73.41
2016-07-12T06:04:14.441Z,74.97
2016-07-12T06:05:24.764Z,77.28
2016-07-12T06:06:14.432Z,79.43
2016-07-12T06:07:14.341Z,79.86
2016-07-12T06:08:14.355Z,81.7
2016-07-12T06:09:14.346Z,82.42
2016-07-12T06:10:14.409Z,82.14
2016-07-12T06:11:14.359Z,82.42
2016-07-12T06:12:14.351Z,83
2016-07-12T06:13:14.356Z,83.09
2016-07-12T06:14:14.378Z,83.44
2016-07-12T06:15:14.360Z,84.5
2016-07-12T06:16:18.238Z,85.03
2016-07-12T06:17:17.416Z,86.38
2016-07-12T06:18:14.360Z,86.09
2016-07-12T06:19:15.594Z,85.99
2016-07-12T06:20:14.365Z,85.8
2016-07-12T06:21:14.357Z,85.89
2016-07-12T06:22:14.345Z,86.57
2016-07-12T06:23:14.356Z,87.53
2016-07-12T06:24:14.372Z,87.29
2016-07-12T06:25:14.486Z,87.39
2016-07-12T06:26:14.398Z,87.92
2016-07-12T06:27:33.107Z,86.76
2016-07-12T06:28:14.366Z,86.95
2016-07-12T06:29:14.363Z,86.57
2016-07-12T06:30:14.490Z,85.84
2016-07-12T06:31:15.819Z,86.42
2016-07-12T06:32:14.347Z,85.75
2016-07-12T06:33:15.309Z,85.17
2016-07-12T06:34:14.374Z,85.75
2016-07-12T06:35:14.375Z,85.46
2016-07-12T06:36:14.556Z,86.04
2016-07-12T06:37:14.363Z,85.94
2016-07-12T06:38:14.399Z,85.65
2016-07-12T06:39:14.408Z,85.17
2016-07-12T06:40:35.653Z,85.46
2016-07-12T06:41:14.404Z,85.55
2016-07-12T06:42:14.392Z,85.84
2016-07-12T06:43:14.670Z,85.46
2016-07-12T06:44:14.385Z,85.55
2016-07-12T06:45:14.374Z,85.75
2016-07-12T06:46:14.374Z,86.18
2016-07-12T06:47:14.411Z,85.71
2016-07-12T06:48:15.043Z,85.8
2016-07-12T06:49:14.544Z,86.47
2016-07-12T06:50:14.411Z,86.99
2016-07-12T06:51:14.408Z,86.32
2016-07-12T06:52:14.427Z,86.52
2016-07-12T06:53:15.186Z,86.47
2016-07-12T06:54:14.498Z,86.13
2016-07-12T06:55:14.631Z,85.75
2016-07-12T06:56:14.488Z,86.61
2016-07-12T06:57:15.235Z,87.43
2016-07-12T06:58:14.450Z,86.95
2016-07-12T06:59:15.565Z,86.95
2016-07-12T07:00:14.416Z,86.57
2016-07-12T07:01:14.443Z,86.22
2016-07-12T07:02:14.840Z,85.07
2016-07-12T07:03:14.700Z,85.36
2016-07-12T07:04:14.774Z,84.59
2016-07-12T07:05:14.564Z,85.27
2016-07-12T07:06:14.495Z,85.46
2016-07-12T07:07:17.002Z,85.27
2016-07-12T07:08:15.494Z,85.94
2016-07-12T07:09:14.501Z,85.27
2016-07-12T07:10:15.553Z,84.59
2016-07-12T07:11:14.417Z,84.88
2016-07-12T07:12:14.469Z,84.98
2016-07-12T07:13:14.390Z,85.71
2016-07-12T07:14:14.394Z,85.75
2016-07-12T07:15:14.431Z,85.55
2016-07-12T07:16:14.471Z,86.13
2016-07-12T07:17:14.774Z,85.84
2016-07-12T07:18:14.798Z,85.36
2016-07-12T07:20:21.296Z,85.27
2016-07-12T07:20:38.652Z,85.17
2016-07-12T07:21:50.887Z,84.69
2016-07-12T07:22:38.503Z,84.5
2016-07-12T07:23:38.571Z,84.44
2016-07-12T07:24:38.542Z,84.25
2016-07-12T07:25:38.491Z,83.67
2016-07-12T07:26:39.391Z,83.48
2016-07-12T07:27:38.634Z,83.58
2016-07-12T07:28:43.660Z,83.09
2016-07-12T07:29:38.543Z,82.61
2016-07-12T07:30:38.528Z,81.7
2016-07-12T07:31:38.516Z,82.04
2016-07-12T07:32:38.527Z,83
2016-07-12T07:33:39.713Z,82.81
2016-07-12T07:35:04.059Z,82.52
2016-07-12T07:35:38.990Z,81.65
2016-07-12T07:36:45.353Z,82.23
2016-07-12T07:37:44.191Z,81.65
2016-07-12T07:38:53.290Z,81.02
2016-07-12T07:39:53.913Z,81.79
2016-07-12T07:40:49.040Z,82.23
2016-07-12T07:41:55.353Z,81.7
2016-07-12T07:42:49.876Z,81.6
2016-07-12T07:43:48.986Z,79.86
2016-07-12T07:45:18.381Z,79.81
2016-07-12T07:45:49.006Z,80
2016-07-12T07:46:49.750Z,79.9
2016-07-12T07:47:49.027Z,79.13
2016-07-12T07:48:49.127Z,78.46
2016-07-12T07:49:59.500Z,78.11
2016-07-12T07:51:19.278Z,76.03
2016-07-12T07:52:27.262Z,76.07
2016-07-12T07:53:12.034Z,74.14
2016-07-12T07:54:03.122Z,74.18
2016-07-12T07:55:04.131Z,73.11
2016-07-12T07:56:07.099Z,71.38
2016-07-12T07:57:04.077Z,70.87
2016-07-12T07:58:04.737Z,70.52
2016-07-12T07:59:18.232Z,67.72
2016-07-12T08:00:07.826Z,66.08
2016-07-12T08:01:04.105Z,68.11
2016-07-12T08:02:04.111Z,70.36
2016-07-12T08:03:04.658Z,69.46
2016-07-12T08:04:12.696Z,67.36
2016-07-12T08:05:04.304Z,65.3
2016-07-12T08:06:04.048Z,63.34
2016-07-12T08:07:05.217Z,61.82
2016-07-12T08:08:04.363Z,59.81
2016-07-12T08:09:07.202Z,59.38
2016-07-12T08:10:15.401Z,58.77
2016-07-12T08:11:05.313Z,58.25
2016-07-12T08:12:08.164Z,58.44
2016-07-12T08:13:15.303Z,58.67
2016-07-12T08:14:04.196Z,57.76
2016-07-12T08:15:04.173Z,58.34
2016-07-12T08:16:06.291Z,57.67
2016-07-12T08:17:04.422Z,56.01
2016-07-12T08:18:04.205Z,55.75
2016-07-12T08:19:16.012Z,56.14
2016-07-12T08:20:06.019Z,57.08
2016-07-12T08:21:07.258Z,56.7
2016-07-12T08:22:06.111Z,57.86
2016-07-12T08:23:05.209Z,57.9
2016-07-12T08:24:04.183Z,57.25
2016-07-12T08:25:04.327Z,55.92
2016-07-12T08:26:54.683Z,54.61
2016-07-12T08:27:21.812Z,53.83
2016-07-12T08:28:18.842Z,53.18
2016-07-12T08:29:18.495Z,54.18
2016-07-12T08:30:18.782Z,54.58
2016-07-12T08:31:18.395Z,53.45
2016-07-12T08:33:18.612Z,52.92
2016-07-12T08:34:18.803Z,50.6
2016-07-12T08:35:18.820Z,51.61
2016-07-12T08:36:19.438Z,52.48
2016-07-12T08:37:18.358Z,52.84
2016-07-12T08:38:18.644Z,52.82
2016-07-12T08:39:18.357Z,54.54
2016-07-12T08:40:18.342Z,55.92
2016-07-12T08:41:18.410Z,55.82
2016-07-12T08:42:19.062Z,54.42
2016-07-12T08:43:18.383Z,53.71
2016-07-12T08:44:18.681Z,54.71
2016-07-12T08:45:21.934Z,56.52
2016-07-12T08:46:18.367Z,57.15
2016-07-12T08:47:18.387Z,55.53
2016-07-12T08:48:18.349Z,54.94
2016-07-12T08:49:18.789Z,53.54
2016-07-12T08:50:18.613Z,52.89
2016-07-12T08:51:18.851Z,53.06
2016-07-12T08:52:18.342Z,54.52
2016-07-12T08:53:18.458Z,55.43
2016-07-12T08:54:18.656Z,55.04
2016-07-12T08:55:18.364Z,54.17
2016-07-12T08:56:20.662Z,54.71
2016-07-12T08:57:18.390Z,53.88
2016-07-12T08:58:18.372Z,53.91
2016-07-12T08:59:18.645Z,53.45
2016-07-12T09:00:18.433Z,52.98
2016-07-12T09:01:18.879Z,51.94
2016-07-12T09:02:18.749Z,50.92
2016-07-12T09:03:18.384Z,49.73
2016-07-12T09:04:18.594Z,51.02
2016-07-12T09:05:18.374Z,49.44
2016-07-12T09:06:18.377Z,48.73
2016-07-12T09:07:18.629Z,48.39
2016-07-12T09:08:18.389Z,47.58
2016-07-12T09:09:27.063Z,49.76
2016-07-12T09:10:25.394Z,49.46
2016-07-12T09:11:18.419Z,51.99
2016-07-12T09:12:18.479Z,52.92
2016-07-12T09:13:18.408Z,52.82
2016-07-12T09:14:18.434Z,51.19
2016-07-12T09:15:18.488Z,50.95
2016-07-12T09:16:18.469Z,48.73
2016-07-12T09:17:18.396Z,50.97
2016-07-12T09:18:18.570Z,54.21
2016-07-12T09:19:18.375Z,52.98
2016-07-12T09:20:18.393Z,52.72
2016-07-12T09:21:18.461Z,53.96
2016-07-12T09:22:18.395Z,53.45
2016-07-12T09:23:19.827Z,52.59
2016-07-12T09:24:18.444Z,52.4
2016-07-12T09:25:18.439Z,51.58
2016-07-12T09:26:18.406Z,53.01
2016-07-12T09:27:18.430Z,53.25
2016-07-12T09:28:20.538Z,52.76
2016-07-12T09:29:18.405Z,52.14
2016-07-12T09:30:18.509Z,52.4
2016-07-12T09:31:18.479Z,53.57
2016-07-12T09:32:20.863Z,54.22
2016-07-12T09:44:38.510Z,54.72
2016-07-12T09:45:41.122Z,55.98
2016-07-12T09:46:38.601Z,56.64
2016-07-12T09:47:48.764Z,55.99
2016-07-12T09:48:38.510Z,54.68
2016-07-12T09:49:38.475Z,53.91
2016-07-12T09:50:38.561Z,54.52
2016-07-12T09:51:39.191Z,54.97
2016-07-12T09:52:38.740Z,53.61
2016-07-12T09:53:39.827Z,51.14
2016-07-12T09:54:38.526Z,51.19
2016-07-12T09:55:38.498Z,49.44
2016-07-12T09:57:05.943Z,49.49
2016-07-12T09:57:41.890Z,50.53
2016-07-12T09:58:41.753Z,51.19
2016-07-12T09:59:38.569Z,49.95
2016-07-12T10:00:38.575Z,49.58
2016-07-12T10:01:38.494Z,48.14
2016-07-12T10:02:38.961Z,49.37
2016-07-12T10:03:38.505Z,49.71
2016-07-12T10:04:38.659Z,51.14
2016-07-12T10:05:40.552Z,50.63
2016-07-12T10:06:38.701Z,49.66
2016-07-12T10:07:39.659Z,49.05
2016-07-12T10:08:38.527Z,49.46
2016-07-12T10:09:38.497Z,48.12
2016-07-12T10:10:38.526Z,48.34
2016-07-12T10:11:38.534Z,47.56
2016-07-12T10:12:38.876Z,47
2016-07-12T10:13:38.615Z,47.51
2016-07-12T10:14:39.376Z,49.51
2016-07-12T10:15:46.687Z,50.8
2016-07-12T10:16:39.929Z,49.41
2016-07-12T10:17:38.542Z,50.31
2016-07-12T10:18:38.494Z,48.36
2016-07-12T10:19:38.593Z,47.53
2016-07-12T10:20:41.495Z,47.17
2016-07-12T10:21:38.593Z,46.51
2016-07-12T10:22:54.695Z,47.97
2016-07-12T10:23:41.819Z,49.44
2016-07-12T10:24:38.494Z,50.68
2016-07-12T10:25:38.524Z,52.28
2016-07-12T10:26:39.920Z,50.53
2016-07-12T10:27:38.589Z,50.85
2016-07-12T10:28:43.384Z,50.24
2016-07-12T10:29:38.624Z,49.71
2016-07-12T10:30:41.480Z,49.58
2016-07-12T10:31:39.386Z,51.5
2016-07-12T10:32:39.709Z,49.29
2016-07-12T10:44:56.728Z,49.8
2016-07-12T10:45:56.696Z,47.61
2016-07-12T10:46:56.722Z,47.27
2016-07-12T10:47:56.708Z,48.8
2016-07-12T10:48:56.676Z,48.95
2016-07-12T10:49:56.716Z,47.49
2016-07-12T10:50:56.700Z,46.56
2016-07-12T10:51:56.692Z,46.88
2016-07-12T10:52:57.054Z,46
2016-07-12T10:53:59.027Z,46.69
2016-07-12T10:55:10.896Z,47.36
2016-07-12T10:56:10.932Z,47.25
2016-07-12T10:57:10.852Z,46.3
2016-07-12T10:58:10.847Z,44.46
2016-07-12T10:59:10.980Z,44.56
2016-07-12T11:00:10.840Z,44.46
2016-07-12T11:01:10.917Z,43.59
2016-07-12T11:02:10.842Z,43.43
2016-07-12T11:03:11.031Z,43.36
2016-07-12T11:04:11.751Z,42.52
2016-07-12T11:05:10.860Z,42.21
2016-07-12T11:06:24.516Z,41.15
2016-07-12T11:07:10.881Z,41.39
2016-07-12T11:08:11.505Z,41.19
2016-07-12T11:09:10.846Z,43.3
2016-07-12T11:10:17.472Z,46.14
2016-07-12T11:11:10.884Z,47.53
2016-07-12T11:12:10.852Z,46.93
2016-07-12T11:13:10.862Z,46.47
2016-07-12T11:14:11.307Z,46.27
2016-07-12T11:15:28.246Z,45.78
2016-07-12T11:16:10.819Z,45.81
2016-07-12T11:17:13.007Z,45.03
2016-07-12T11:18:10.855Z,46.1
2016-07-12T11:19:11.300Z,47.46
2016-07-12T11:20:14.220Z,48.46
2016-07-12T11:21:10.849Z,48.95
2016-07-12T11:22:11.153Z,48.54
2016-07-12T11:23:10.868Z,51.4
2016-07-12T11:24:30.552Z,53.49
2016-07-12T11:25:30.709Z,54.21
2016-07-12T11:26:11.079Z,56.29
2016-07-12T11:27:11.396Z,57.04
2016-07-12T11:28:11.286Z,58.37
2016-07-12T11:29:10.885Z,55.58
2016-07-12T11:30:10.887Z,55.88
2016-07-12T11:31:19.812Z,56.39
2016-07-12T11:32:10.921Z,55.52
2016-07-12T11:33:10.851Z,54.96
2016-07-12T11:34:12.676Z,55.74
2016-07-12T11:35:10.861Z,55.54
2016-07-12T11:36:12.189Z,57.94
2016-07-12T11:37:10.915Z,56.92
2016-07-12T11:38:10.869Z,54.28
2016-07-12T11:39:10.868Z,52.91
2016-07-12T11:40:10.855Z,52.45
2016-07-12T11:41:11.482Z,51.55
2016-07-12T11:42:10.878Z,52.64
2016-07-12T11:43:11.911Z,53.56
2016-07-12T11:44:10.861Z,54.53
2016-07-12T11:45:19.622Z,53.24
2016-07-12T11:46:10.973Z,52.03
2016-07-12T11:47:11.003Z,49.85
2016-07-12T11:48:13.948Z,47.61
2016-07-12T11:49:22.295Z,46.37
2016-07-12T11:50:21.972Z,47.32
2016-07-12T11:51:11.144Z,48.25
2016-07-12T11:52:12.209Z,47.59
2016-07-12T11:53:11.086Z,45.88
2016-07-12T11:54:10.874Z,46.05
2016-07-12T11:55:16.500Z,45.1
2016-07-12T11:56:10.943Z,45.57
2016-07-12T11:57:10.874Z,46.25
2016-07-12T11:58:22.723Z,47.3
2016-07-12T11:59:10.876Z,46.71
2016-07-12T12:00:10.955Z,48.46
2016-07-12T12:01:10.858Z,52.13
2016-07-12T12:02:10.900Z,53.7
2016-07-12T12:03:13.431Z,53.51
2016-07-12T12:04:10.961Z,53.22
2016-07-12T12:05:10.884Z,52.93
2016-07-12T12:06:10.870Z,50.92
2016-07-12T12:07:27.445Z,48.57
2016-07-12T12:08:14.461Z,46.88
2016-07-12T12:09:10.861Z,45.76
2016-07-12T12:10:10.916Z,45.1
2016-07-12T12:11:10.950Z,44.34
2016-07-12T12:12:10.879Z,45.34
2016-07-12T12:13:10.924Z,45.78
2016-07-12T12:14:11.481Z,45.1
2016-07-12T12:15:10.956Z,44.05
2016-07-12T12:17:22.799Z,44.42
2016-07-12T12:18:22.118Z,43.57
2016-07-12T12:19:22.078Z,43.78
2016-07-12T12:20:22.058Z,43.49
2016-07-12T12:21:23.452Z,42.75
2016-07-12T12:22:22.133Z,42.44
2016-07-12T12:23:22.153Z,42.44
2016-07-12T12:24:22.038Z,42.41
2016-07-12T12:25:31.096Z,43.1
2016-07-12T12:26:37.194Z,42.83
2016-07-12T12:27:31.232Z,43.61
2016-07-12T12:28:31.600Z,43.41
2016-07-12T12:29:31.139Z,45.71
2016-07-12T12:30:31.116Z,47.56
2016-07-12T12:31:31.134Z,46.86
2016-07-12T12:32:31.501Z,45.14
2016-07-12T12:33:31.129Z,43.35
2016-07-12T12:34:31.089Z,43.66
2016-07-12T12:35:31.101Z,44.59
2016-07-12T12:36:33.742Z,44.23
2016-07-12T12:37:31.123Z,44.03
2016-07-12T12:38:31.733Z,44.37
2016-07-12T12:39:33.754Z,43.66
2016-07-12T12:40:31.061Z,44.13
2016-07-12T12:41:31.221Z,44.01
2016-07-12T12:42:31.095Z,44.2
2016-07-12T12:43:33.289Z,44.96
2016-07-12T12:44:31.107Z,46.88
2016-07-12T12:45:31.819Z,48.85
2016-07-12T12:46:31.135Z,50.46
2016-07-12T12:47:36.255Z,50.89
2016-07-12T12:48:32.374Z,50.31
2016-07-12T12:49:34.319Z,50.43
2016-07-12T12:50:42.990Z,49.95
2016-07-12T12:51:31.934Z,49.39
2016-07-12T12:52:31.109Z,48.73
2016-07-12T12:53:31.103Z,50.04
2016-07-12T12:54:31.083Z,49.66
2016-07-12T12:55:48.219Z,49.1
2016-07-12T12:56:31.106Z,49.97
2016-07-12T12:57:33.271Z,49.39
2016-07-12T12:58:31.065Z,49.77
2016-07-12T12:59:31.091Z,50.46
2016-07-12T13:00:31.096Z,49.95
2016-07-12T13:01:31.444Z,48.05
2016-07-12T13:02:31.231Z,45.62
2016-07-12T13:03:31.089Z,43.79
2016-07-12T13:04:31.096Z,43.25
2016-07-12T13:05:46.816Z,43.95
2016-07-12T13:06:37.754Z,44.48
2016-07-12T13:07:31.429Z,45.14
2016-07-12T13:08:31.278Z,47.42
2016-07-12T13:09:31.098Z,48.93
2016-07-12T13:10:47.199Z,48.54
2016-07-12T13:11:31.100Z,48.64
2016-07-12T13:12:31.282Z,49.12
2016-07-12T13:13:31.118Z,49.99
2016-07-12T13:14:31.904Z,49.9
2016-07-12T13:15:31.212Z,48.95
2016-07-12T13:16:32.126Z,48.85
2016-07-12T13:17:31.119Z,49.99
2016-07-12T13:18:31.114Z,50.68
2016-07-12T13:19:31.104Z,50.87
2016-07-12T13:20:42.301Z,51.43
2016-07-12T13:21:31.120Z,51.4
2016-07-12T13:22:31.095Z,52.34
2016-07-12T13:23:31.092Z,52.51
2016-07-12T13:24:31.112Z,52.32
2016-07-12T13:25:31.129Z,52.54
2016-07-12T13:26:31.121Z,52.34
2016-07-12T13:27:31.086Z,52.34
2016-07-12T13:28:31.376Z,51.96
2016-07-12T13:29:31.095Z,50.79
2016-07-12T13:30:31.112Z,49.19
2016-07-12T13:31:31.756Z,49.71
2016-07-12T13:32:31.107Z,50.84
2016-07-12T13:41:57.827Z,52.56
2016-07-12T13:43:03.281Z,52.2
2016-07-12T13:43:56.563Z,52.36
2016-07-12T13:44:56.387Z,52.46
2016-07-12T13:45:57.402Z,53.43
2016-07-12T13:46:56.398Z,53.04
2016-07-12T13:47:56.386Z,53.26
2016-07-12T13:48:56.479Z,53.36
2016-07-12T13:49:56.410Z,53.63
2016-07-12T13:50:56.560Z,53.45
2016-07-12T13:51:56.519Z,54.39
2016-07-12T13:52:56.450Z,51.68